Time;durP1;ratioP1;P1;durP2;ratioP2;P2;SDS_P1;SDS_P2;PMS_P1;PMS_P2;Temp;Humidity;BMP_temperature;BMP_pressure;BME280_temperature;BME280_humidity;BME280_pressure;Samples;Min_cycle;Max_cycle;Signal;HPM_P1;HPM_P2
2021/12/13 00:00:13;;;;;;;;;;;;;;;;;;1010822;29;1762;-16
2021/12/13 00:00:47;;;;;;;;;;;;;;;;;;1013691;29;1134;-15
2021/12/13 00:01:28;;;;;;;;;;;;;;;;;;1016111;29;1669;-15
2021/12/13 00:02:05;;;;;;;;;;;;;;;;;;1019932;29;1072;-15
2021/12/13 00:02:39;;;;;;;;;;;;;;;;;;1020566;29;1141;-15
2021/12/13 00:03:15;;;;;;;;;;;;;;;;;;1020076;29;1140;-15
2021/12/13 00:03:49;;;;;;;;;;;;;;;;;;1019209;29;985;-15
2021/12/13 00:04:24;;;;;;;;;;;;;;;;;;1019295;29;986;-16
2021/12/13 00:04:57;;;;;;;;;;;;;;;;;;1023695;28;1872;-15
2021/12/13 00:05:30;;;;;;;;;;;;;;;;;;1025183;28;1095;-16
2021/12/13 00:06:07;;;;;;;;;;;;;;;;;;1022897;28;1013;-15
2021/12/13 00:06:39;;;;;;;;;;;;;;;;;;1025074;28;1021;-15
2021/12/13 00:07:21;;;;;;;;;;;;;;;;;;1025065;28;1171;-15
2021/12/13 00:07:54;;;;;;;;;;;;;;;;;;1023594;28;1061;-15
2021/12/13 00:08:27;;;;;;;;;;;;;;;;;;1025226;28;997;-15
2021/12/13 00:09:00;;;;;;;;;;;;;;;;;;1023929;28;1049;-16
2021/12/13 00:09:44;;;;;;;;;;;;;;;;;;1023101;28;994;-15
2021/12/13 00:10:18;;;;;;;;;;;;;;;;;;1014981;29;1215;-15
2021/12/13 00:10:53;;;;;;;;;;;;;;;;;;1013667;29;1066;-15
2021/12/13 00:11:33;;;;;;;;;;;;;;;;;;1016582;29;1208;-15
2021/12/13 00:12:05;;;;;;;;;;;;;;;;;;1020257;28;1070;-15
2021/12/13 00:12:38;;;;;;;;;;;;;;;;;;1022988;29;906;-15
2021/12/13 00:13:13;;;;;;;;;;;;;;;;;;1023422;29;922;-15
2021/12/13 00:13:48;;;;;;;;;;;;;;;;;;1023111;29;820;-15
2021/12/13 00:14:22;;;;;;;;;;;;;;;;;;1022994;29;1082;-15
2021/12/13 00:14:53;;;;;;;;;;;;;;;;;;1022907;28;1041;-15
2021/12/13 00:15:30;;;;;;;;;;;;;;;;;;1023061;29;1128;-15
2021/12/13 00:16:02;;;;;;;;;;;;;;;;;;1022998;29;1280;-15
2021/12/13 00:16:35;;;;;;;;;;;;;;;;;;1022816;29;1072;-15
2021/12/13 00:17:13;;;;;;;;;;;;;;;;;;1023040;29;982;-15
2021/12/13 00:17:45;;;;;;;;;;;;;;;;;;1018401;29;948;-15
2021/12/13 00:18:18;;;;;;;;;;;;;;;;;;1018197;29;1224;-15
2021/12/13 00:18:53;;;;;;;;;;;;;;;;;;1018681;29;973;-15
2021/12/13 00:19:25;;;;;;;;;;;;;;;;;;1019766;28;1621;-15
2021/12/13 00:20:05;;;;;;;;;;;;;;;;;;1022966;29;847;-15
2021/12/13 00:20:40;;;;;;;;;;;;;;;;;;1023027;29;1030;-15
2021/12/13 00:21:27;;;;;;;;;;;;;;;;;;1023029;29;928;-15
2021/12/13 00:22:04;;;;;;;;;;;;;;;;;;1022880;29;891;-15
2021/12/13 00:22:37;;;;;;;;;;;;;;;;;;1023234;28;1093;-15
2021/12/13 00:23:21;;;;;;;;;;;;;;;;;;1018755;29;1155;-15
2021/12/13 00:23:54;;;;;;;;;;;;;;;;;;1018422;29;808;-15
2021/12/13 00:24:26;;;;;;;;;;;;;;;;;;1018919;29;1016;-15
2021/12/13 00:25:03;;;;;;;;;;;;;;;;;;1020625;29;1685;-15
2021/12/13 00:25:38;;;;;;;;;;;;;;;;;;1022878;29;1195;-15
2021/12/13 00:26:09;;;;;;;;;;;;;;;;;;1023176;29;1038;-15
2021/12/13 00:26:40;;;;;;;;;;;;;;;;;;1022917;28;918;-15
2021/12/13 00:27:16;;;;;;;;;;;;;;;;;;1023141;29;917;-15
2021/12/13 00:27:49;;;;;;;;;;;;;;;;;;1022815;29;895;-15
2021/12/13 00:28:21;;;;;;;;;;;;;;;;;;1023132;29;887;-15
2021/12/13 00:28:51;;;;;;;;;;;;;;;;;;1023034;29;862;-15
2021/12/13 00:29:23;;;;;;;;;;;;;;;;;;1022834;29;1183;-14
2021/12/13 00:29:54;;;;;;;;;;;;;;;;;;1024805;28;1013;-15
2021/12/13 00:30:43;;;;;;;;;;;;;;;;;;1026950;28;1911;-15
2021/12/13 00:31:32;;;;;;;;;;;;;;;;;;1026949;28;981;-15
2021/12/13 00:32:10;;;;;;;;;;;;;;;;;;1023144;28;978;-15
2021/12/13 00:32:57;;;;;;;;;;;;;;;;;;1025138;28;1104;-15
2021/12/13 00:33:47;;;;;;;;;;;;;;;;;;1024470;28;1121;-15
2021/12/13 00:34:26;;;;;;;;;;;;;;;;;;1024071;28;1016;-15
2021/12/13 00:35:01;;;;;;;;;;;;;;;;;;1024786;28;1127;-15
2021/12/13 00:35:52;;;;;;;;;;;;;;;;;;1023127;28;934;-14
2021/12/13 00:36:32;;;;;;;;;;;;;;;;;;1023599;28;1391;-15
2021/12/13 00:37:07;;;;;;;;;;;;;;;;;;1022808;28;1082;-15
2021/12/13 00:37:39;;;;;;;;;;;;;;;;;;1025008;28;1105;-17
2021/12/13 00:38:10;;;;;;;;;;;;;;;;;;1024724;28;949;-14
2021/12/13 00:38:43;;;;;;;;;;;;;;;;;;1025102;28;1072;-15
2021/12/13 00:39:19;;;;;;;;;;;;;;;;;;1024978;28;1064;-15
2021/12/13 00:39:52;;;;;;;;;;;;;;;;;;1022782;28;1033;-15
2021/12/13 00:40:28;;;;;;;;;;;;;;;;;;1025172;28;1111;-15
2021/12/13 00:41:07;;;;;;;;;;;;;;;;;;1024789;28;1090;-14
2021/12/13 00:41:38;;;;;;;;;;;;;;;;;;1023204;28;1065;-14
2021/12/13 00:42:08;;;;;;;;;;;;;;;;;;1025089;28;1001;-14
2021/12/13 00:42:50;;;;;;;;;;;;;;;;;;1022774;29;958;-14
2021/12/13 00:43:26;;;;;;;;;;;;;;;;;;1023196;28;795;-15
2021/12/13 00:43:59;;;;;;;;;;;;;;;;;;1022547;29;1317;-14
2021/12/13 00:44:44;;;;;;;;;;;;;;;;;;1022831;29;1051;-15
2021/12/13 00:45:16;;;;;;;;;;;;;;;;;;1018667;29;1109;-14
2021/12/13 00:45:54;;;;;;;;;;;;;;;;;;1018559;29;876;-15
2021/12/13 00:46:25;;;;;;;;;;;;;;;;;;1018643;29;852;-15
2021/12/13 00:47:01;;;;;;;;;;;;;;;;;;1020094;29;940;-14
2021/12/13 00:47:32;;;;;;;;;;;;;;;;;;1022803;29;954;-15
2021/12/13 00:48:08;;;;;;;;;;;;;;;;;;1022932;29;977;-14
2021/12/13 00:48:42;;;;;;;;;;;;;;;;;;1002772;29;1131;-15
2021/12/13 00:49:15;;;;;;;;;;;;;;;;;;1002602;29;1040;-15
2021/12/13 00:49:47;;;;;;;;;;;;;;;;;;1002870;29;1037;-14
2021/12/13 00:50:20;;;;;;;;;;;;;;;;;;1007880;29;1202;-15
2021/12/13 00:50:57;;;;;;;;;;;;;;;;;;1023019;29;951;-15
2021/12/13 00:51:29;;;;;;;;;;;;;;;;;;1022996;29;919;-15
2021/12/13 00:52:02;;;;;;;;;;;;;;;;;;1022908;29;931;-15
2021/12/13 00:52:33;;;;;;;;;;;;;;;;;;1023013;28;969;-14
2021/12/13 00:53:04;;;;;;;;;;;;;;;;;;1022770;29;1676;-14
2021/12/13 00:53:36;;;;;;;;;;;;;;;;;;1023033;29;1010;-14
2021/12/13 00:54:12;;;;;;;;;;;;;;;;;;1022799;29;934;-14
2021/12/13 00:54:43;;;;;;;;;;;;;;;;;;1023040;29;915;-15
2021/12/13 00:55:22;;;;;;;;;;;;;;;;;;1022928;29;973;-14
2021/12/13 00:55:53;;;;;;;;;;;;;;;;;;1022693;29;819;-15
2021/12/13 00:56:42;;;;;;;;;;;;;;;;;;1022960;29;939;-14
2021/12/13 00:57:21;;;;;;;;;;;;;;;;;;1023060;29;922;-15
2021/12/13 00:58:20;;;;;;;;;;;;;;;;;;1022485;29;971;-14
2021/12/13 00:58:51;;;;;;;;;;;;;;;;;;1010223;29;1238;-14
2021/12/13 00:59:24;;;;;;;;;;;;;;;;;;1022862;29;1102;-15
2021/12/13 01:00:04;;;;;;;;;;;;;;;;;;1022821;28;1052;-14
2021/12/13 01:00:39;;;;;;;;;;;;;;;;;;1014146;29;1076;-14
2021/12/13 01:01:10;;;;;;;;;;;;;;;;;;1014481;29;982;-14
2021/12/13 01:01:41;;;;;;;;;;;;;;;;;;1014283;29;956;-14
2021/12/13 01:02:20;;;;;;;;;;;;;;;;;;1015870;29;870;-14
2021/12/13 01:02:59;;;;;;;;;;;;;;;;;;1022717;29;1067;-15
2021/12/13 01:03:32;;;;;;;;;;;;;;;;;;1022603;29;1008;-14
2021/12/13 01:04:05;;;;;;;;;;;;;;;;;;1018473;29;973;-14
2021/12/13 01:04:48;;;;;;;;;;;;;;;;;;1010355;29;992;-15
2021/12/13 01:05:39;;;;;;;;;;;;;;;;;;1010335;29;1013;-14
2021/12/13 01:06:24;;;;;;;;;;;;;;;;;;1007932;29;1017;-15
2021/12/13 01:06:54;;;;;;;;;;;;;;;;;;1022850;29;938;-15
2021/12/13 01:07:34;;;;;;;;;;;;;;;;;;1018524;29;853;-15
2021/12/13 01:08:10;;;;;;;;;;;;;;;;;;1018413;29;883;-14
2021/12/13 01:08:58;;;;;;;;;;;;;;;;;;1014784;29;1140;-15
2021/12/13 01:09:48;;;;;;;;;;;;;;;;;;1018688;29;1156;-15
2021/12/13 01:10:37;;;;;;;;;;;;;;;;;;1019450;29;919;-14
2021/12/13 01:11:11;;;;;;;;;;;;;;;;;;1022634;29;967;-15
2021/12/13 01:11:53;;;;;;;;;;;;;;;;;;1018241;29;967;-14
2021/12/13 01:12:24;;;;;;;;;;;;;;;;;;1018492;29;996;-14
2021/12/13 01:12:56;;;;;;;;;;;;;;;;;;1018050;29;931;-14
2021/12/13 01:13:26;;;;;;;;;;;;;;;;;;1020257;29;1390;-14
2021/12/13 01:14:04;;;;;;;;;;;;;;;;;;1022394;29;1008;-14
2021/12/13 01:14:58;;;;;;;;;;;;;;;;;;1006422;29;963;-15
2021/12/13 01:15:39;;;;;;;;;;;;;;;;;;1006115;29;1387;-15
2021/12/13 01:17:11;;;;;;;;;;;;;;;;;;1022817;29;982;-15
2021/12/13 01:18:19;;;;;;;;;;;;;;;;;;1022747;29;967;-14
2021/12/13 01:19:27;;;;;;;;;;;;;;;;;;1021924;29;1512;-14
2021/12/13 01:20:25;;;;;;;;;;;;;;;;;;1022898;29;990;-14
2021/12/13 01:21:11;;;;;;;;;;;;;;;;;;1022952;29;887;-14
2021/12/13 01:22:01;;;;;;;;;;;;;;;;;;1022453;28;896;-15
2021/12/13 01:22:45;;;;;;;;;;;;;;;;;;1014323;29;955;-15
2021/12/13 01:23:28;;;;;;;;;;;;;;;;;;1013997;29;1397;-14
2021/12/13 01:24:06;;;;;;;;;;;;;;;;;;1014178;29;828;-14
2021/12/13 01:25:42;;;;;;;;;;;;;;;;;;1022854;29;946;-14
2021/12/13 01:26:52;;;;;;;;;;;;;;;;;;1022890;29;887;-14
2021/12/13 01:27:33;;;;;;;;;;;;;;;;;;1018162;29;883;-14
2021/12/13 01:28:24;;;;;;;;;;;;;;;;;;1017959;29;1076;-14
2021/12/13 01:28:59;;;;;;;;;;;;;;;;;;1016612;29;1118;-14
2021/12/13 01:29:29;;;;;;;;;;;;;;;;;;1022894;29;989;-14
2021/12/13 01:30:00;;;;;;;;;;;;;;;;;;1018273;29;1044;-14
2021/12/13 01:30:38;;;;;;;;;;;;;;;;;;1021661;29;2024;-14
2021/12/13 01:31:10;;;;;;;;;;;;;;;;;;1014325;29;1062;-14
2021/12/13 01:31:43;;;;;;;;;;;;;;;;;;1015306;29;934;-15
2021/12/13 01:32:16;;;;;;;;;;;;;;;;;;1018194;29;996;-14
2021/12/13 01:32:48;;;;;;;;;;;;;;;;;;1015926;29;955;-14
2021/12/13 01:33:19;;;;;;;;;;;;;;;;;;1018621;29;1001;-14
2021/12/13 01:33:50;;;;;;;;;;;;;;;;;;1018498;29;941;-15
2021/12/13 01:34:24;;;;;;;;;;;;;;;;;;1017319;29;1206;-15
2021/12/13 01:34:54;;;;;;;;;;;;;;;;;;1019349;29;962;-14
2021/12/13 01:35:26;;;;;;;;;;;;;;;;;;1022794;29;934;-14
2021/12/13 01:36:00;;;;;;;;;;;;;;;;;;1022916;29;998;-15
2021/12/13 01:36:38;;;;;;;;;;;;;;;;;;1022476;29;878;-14
2021/12/13 01:37:14;;;;;;;;;;;;;;;;;;1022740;29;886;-14
2021/12/13 01:37:50;;;;;;;;;;;;;;;;;;1022930;28;1042;-14
2021/12/13 01:38:32;;;;;;;;;;;;;;;;;;1022602;29;886;-14
2021/12/13 01:39:07;;;;;;;;;;;;;;;;;;1022820;29;783;-14
2021/12/13 01:39:39;;;;;;;;;;;;;;;;;;1022803;29;1109;-14
2021/12/13 01:40:11;;;;;;;;;;;;;;;;;;1022588;29;907;-14
2021/12/13 01:40:44;;;;;;;;;;;;;;;;;;1022535;28;940;-14
2021/12/13 01:41:20;;;;;;;;;;;;;;;;;;1022116;29;1550;-14
2021/12/13 01:41:53;;;;;;;;;;;;;;;;;;1022230;29;1096;-14
2021/12/13 01:42:25;;;;;;;;;;;;;;;;;;1022623;29;1045;-14
2021/12/13 01:43:03;;;;;;;;;;;;;;;;;;1022295;29;1328;-14
2021/12/13 01:43:35;;;;;;;;;;;;;;;;;;1022714;28;1002;-14
2021/12/13 01:44:25;;;;;;;;;;;;;;;;;;1022466;29;1851;-14
2021/12/13 01:44:58;;;;;;;;;;;;;;;;;;1022635;29;894;-14
2021/12/13 01:45:31;;;;;;;;;;;;;;;;;;1022887;28;811;-14
2021/12/13 01:46:01;;;;;;;;;;;;;;;;;;1022731;29;910;-14
2021/12/13 01:46:39;;;;;;;;;;;;;;;;;;1018028;29;965;-14
2021/12/13 01:47:13;;;;;;;;;;;;;;;;;;1018161;29;997;-14
2021/12/13 01:47:44;;;;;;;;;;;;;;;;;;1018009;29;1090;-14
2021/12/13 01:48:16;;;;;;;;;;;;;;;;;;1019791;29;989;-14
2021/12/13 01:48:48;;;;;;;;;;;;;;;;;;1018246;29;932;-14
2021/12/13 01:49:19;;;;;;;;;;;;;;;;;;1018351;29;1365;-14
2021/12/13 01:49:52;;;;;;;;;;;;;;;;;;1018337;29;958;-14
2021/12/13 01:50:30;;;;;;;;;;;;;;;;;;1019132;29;1911;-14
2021/12/13 01:51:06;;;;;;;;;;;;;;;;;;1022968;29;946;-14
2021/12/13 01:51:36;;;;;;;;;;;;;;;;;;1022338;29;801;-14
2021/12/13 01:52:15;;;;;;;;;;;;;;;;;;1023108;29;862;-14
2021/12/13 01:52:48;;;;;;;;;;;;;;;;;;1022870;29;1023;-14
2021/12/13 01:53:19;;;;;;;;;;;;;;;;;;1022589;28;839;-14
2021/12/13 01:53:53;;;;;;;;;;;;;;;;;;1022812;29;1001;-20
2021/12/13 01:54:23;;;;;;;;;;;;;;;;;;1022439;29;1504;-14
2021/12/13 01:54:55;;;;;;;;;;;;;;;;;;1023004;29;934;-14
2021/12/13 01:55:30;;;;;;;;;;;;;;;;;;1022600;29;883;-14
2021/12/13 01:56:10;;;;;;;;;;;;;;;;;;1018352;29;969;-14
2021/12/13 01:56:54;;;;;;;;;;;;;;;;;;1018583;29;1014;-14
2021/12/13 01:57:38;;;;;;;;;;;;;;;;;;1018364;29;997;-14
2021/12/13 01:59:04;;;;;;;;;;;;;;;;;;1022616;29;954;-14
2021/12/13 02:00:18;;;;;;;;;;;;;;;;;;1018058;29;1424;-15
2021/12/13 02:01:09;;;;;;;;;;;;;;;;;;1018237;29;969;-15
2021/12/13 02:01:41;;;;;;;;;;;;;;;;;;1022578;29;791;-14
2021/12/13 02:02:16;;;;;;;;;;;;;;;;;;1022877;29;962;-15
2021/12/13 02:02:50;;;;;;;;;;;;;;;;;;1022205;29;1246;-14
2021/12/13 02:03:22;;;;;;;;;;;;;;;;;;1022875;29;1390;-14
2021/12/13 02:04:07;;;;;;;;;;;;;;;;;;1022499;29;1144;-14
2021/12/13 02:04:38;;;;;;;;;;;;;;;;;;1013894;29;1127;-14
2021/12/13 02:05:11;;;;;;;;;;;;;;;;;;1014320;29;1020;-14
2021/12/13 02:05:46;;;;;;;;;;;;;;;;;;1013748;29;1093;-15
2021/12/13 02:06:23;;;;;;;;;;;;;;;;;;1016634;29;943;-14
2021/12/13 02:06:56;;;;;;;;;;;;;;;;;;1022774;29;825;-15
2021/12/13 02:07:29;;;;;;;;;;;;;;;;;;1022496;29;993;-15
2021/12/13 02:08:07;;;;;;;;;;;;;;;;;;1022874;28;997;-15
2021/12/13 02:08:38;;;;;;;;;;;;;;;;;;1022561;29;1028;-15
2021/12/13 02:09:13;;;;;;;;;;;;;;;;;;1022788;29;950;-14
2021/12/13 02:09:44;;;;;;;;;;;;;;;;;;1022638;28;922;-14
2021/12/13 02:10:27;;;;;;;;;;;;;;;;;;1022590;29;1021;-15
2021/12/13 02:10:57;;;;;;;;;;;;;;;;;;1022993;29;831;-15
2021/12/13 02:11:29;;;;;;;;;;;;;;;;;;1022090;29;1392;-14
2021/12/13 02:12:01;;;;;;;;;;;;;;;;;;1022761;29;1089;-14
2021/12/13 02:12:33;;;;;;;;;;;;;;;;;;1022675;29;1009;-14
2021/12/13 02:13:21;;;;;;;;;;;;;;;;;;1022669;28;807;-14
2021/12/13 02:14:12;;;;;;;;;;;;;;;;;;1022667;29;1037;-14
2021/12/13 02:17:24;;;;;;;;;;;;;;;;;;1018679;29;1114;-15
2021/12/13 02:17:55;;;;;;;;;;;;;;;;;;1018207;29;931;-14
2021/12/13 02:18:28;;;;;;;;;;;;;;;;;;1021496;29;953;-15
2021/12/13 02:18:59;;;;;;;;;;;;;;;;;;1022561;29;1018;-15
2021/12/13 02:19:34;;;;;;;;;;;;;;;;;;1022630;29;922;-14
2021/12/13 02:20:07;;;;;;;;;;;;;;;;;;1022753;28;901;-15
2021/12/13 02:20:39;;;;;;;;;;;;;;;;;;1022436;29;1223;-15
2021/12/13 02:21:18;;;;;;;;;;;;;;;;;;1022841;29;1069;-14
2021/12/13 02:21:58;;;;;;;;;;;;;;;;;;1022481;29;881;-14
2021/12/13 02:22:48;;;;;;;;;;;;;;;;;;1022633;29;898;-14
2021/12/13 02:23:19;;;;;;;;;;;;;;;;;;1022679;28;1186;-14
2021/12/13 02:23:52;;;;;;;;;;;;;;;;;;1013969;29;1776;-15
2021/12/13 02:24:23;;;;;;;;;;;;;;;;;;1010068;29;1036;-14
2021/12/13 02:24:54;;;;;;;;;;;;;;;;;;1010314;29;891;-14
2021/12/13 02:25:29;;;;;;;;;;;;;;;;;;1010992;29;943;-14
2021/12/13 02:26:00;;;;;;;;;;;;;;;;;;1019078;29;796;-15
2021/12/13 02:26:31;;;;;;;;;;;;;;;;;;1013816;29;1056;-14
2021/12/13 02:27:03;;;;;;;;;;;;;;;;;;1014156;29;977;-15
2021/12/13 02:27:36;;;;;;;;;;;;;;;;;;1014088;29;905;-15
2021/12/13 02:28:12;;;;;;;;;;;;;;;;;;1015136;29;931;-14
2021/12/13 02:28:44;;;;;;;;;;;;;;;;;;1022588;28;948;-14
2021/12/13 02:29:21;;;;;;;;;;;;;;;;;;1022558;29;1192;-14
2021/12/13 02:29:53;;;;;;;;;;;;;;;;;;1022700;28;818;-14
2021/12/13 02:30:23;;;;;;;;;;;;;;;;;;1022390;28;1919;-14
2021/12/13 02:31:08;;;;;;;;;;;;;;;;;;1024207;28;1048;-14
2021/12/13 02:31:39;;;;;;;;;;;;;;;;;;1026458;28;1057;-15
2021/12/13 02:32:10;;;;;;;;;;;;;;;;;;1026566;28;1028;-15
2021/12/13 02:32:42;;;;;;;;;;;;;;;;;;1026569;28;1209;-14
2021/12/13 02:33:17;;;;;;;;;;;;;;;;;;1022174;28;1292;-14
2021/12/13 02:33:52;;;;;;;;;;;;;;;;;;1022358;29;899;-14
2021/12/13 02:34:30;;;;;;;;;;;;;;;;;;1021302;29;1194;-14
2021/12/13 02:35:04;;;;;;;;;;;;;;;;;;1017008;29;987;-14
2021/12/13 02:35:36;;;;;;;;;;;;;;;;;;1018708;29;847;-15
2021/12/13 02:36:11;;;;;;;;;;;;;;;;;;1018779;29;979;-14
2021/12/13 02:36:47;;;;;;;;;;;;;;;;;;1020086;29;1001;-14
2021/12/13 02:37:18;;;;;;;;;;;;;;;;;;1023664;29;867;-14
2021/12/13 02:37:48;;;;;;;;;;;;;;;;;;1023213;29;978;-15
2021/12/13 02:38:20;;;;;;;;;;;;;;;;;;1019154;29;1056;-15
2021/12/13 02:38:51;;;;;;;;;;;;;;;;;;1019133;29;938;-15
2021/12/13 02:39:24;;;;;;;;;;;;;;;;;;1019072;29;856;-14
2021/12/13 02:39:58;;;;;;;;;;;;;;;;;;1019900;29;821;-15
2021/12/13 02:40:28;;;;;;;;;;;;;;;;;;1023346;29;1017;-14
2021/12/13 02:40:59;;;;;;;;;;;;;;;;;;1023575;29;919;-14
2021/12/13 02:41:30;;;;;;;;;;;;;;;;;;1023091;29;955;-14
2021/12/13 02:42:04;;;;;;;;;;;;;;;;;;1023439;29;1077;-15
2021/12/13 02:42:35;;;;;;;;;;;;;;;;;;1023390;29;975;-15
2021/12/13 02:43:07;;;;;;;;;;;;;;;;;;1023448;28;890;-14
2021/12/13 02:43:40;;;;;;;;;;;;;;;;;;1023346;29;972;-14
2021/12/13 02:44:13;;;;;;;;;;;;;;;;;;1019062;29;871;-14
2021/12/13 02:44:46;;;;;;;;;;;;;;;;;;1019197;29;970;-14
2021/12/13 02:45:20;;;;;;;;;;;;;;;;;;1018983;29;918;-14
2021/12/13 02:45:52;;;;;;;;;;;;;;;;;;1020411;29;812;-15
2021/12/13 02:46:23;;;;;;;;;;;;;;;;;;1023350;29;1007;-15
2021/12/13 02:46:57;;;;;;;;;;;;;;;;;;1023395;29;918;-15
2021/12/13 02:47:31;;;;;;;;;;;;;;;;;;1023517;29;955;-14
2021/12/13 02:48:05;;;;;;;;;;;;;;;;;;1023011;29;831;-14
2021/12/13 02:48:38;;;;;;;;;;;;;;;;;;1023667;29;1017;-14
2021/12/13 02:49:11;;;;;;;;;;;;;;;;;;1018855;29;1183;-14
2021/12/13 02:49:42;;;;;;;;;;;;;;;;;;1018536;29;891;-15
2021/12/13 02:50:23;;;;;;;;;;;;;;;;;;1019040;29;1272;-15
2021/12/13 02:51:09;;;;;;;;;;;;;;;;;;1018564;29;1000;-15
2021/12/13 02:51:46;;;;;;;;;;;;;;;;;;1019015;29;923;-15
2021/12/13 02:52:18;;;;;;;;;;;;;;;;;;1019078;29;1061;-15
2021/12/13 02:52:49;;;;;;;;;;;;;;;;;;1022277;29;901;-15
2021/12/13 02:53:21;;;;;;;;;;;;;;;;;;1023379;29;1403;-15
2021/12/13 02:53:52;;;;;;;;;;;;;;;;;;1023097;28;1148;-15
2021/12/13 02:54:25;;;;;;;;;;;;;;;;;;1019286;29;1005;-16
2021/12/13 02:55:01;;;;;;;;;;;;;;;;;;1018992;29;1668;-15
2021/12/13 02:55:32;;;;;;;;;;;;;;;;;;1019028;29;937;-15
2021/12/13 02:56:04;;;;;;;;;;;;;;;;;;1020374;29;907;-15
2021/12/13 02:56:36;;;;;;;;;;;;;;;;;;1023268;29;860;-15
2021/12/13 02:57:07;;;;;;;;;;;;;;;;;;1019047;29;1360;-15
2021/12/13 02:57:41;;;;;;;;;;;;;;;;;;1018894;29;938;-16
2021/12/13 02:58:13;;;;;;;;;;;;;;;;;;1014773;29;1070;-15
2021/12/13 02:58:45;;;;;;;;;;;;;;;;;;1015612;29;903;-15
2021/12/13 02:59:15;;;;;;;;;;;;;;;;;;1018724;29;902;-15
2021/12/13 02:59:50;;;;;;;;;;;;;;;;;;1019169;29;990;-15
2021/12/13 03:00:26;;;;;;;;;;;;;;;;;;1023224;29;995;-15
2021/12/13 03:01:04;;;;;;;;;;;;;;;;;;1023510;28;915;-15
2021/12/13 03:01:34;;;;;;;;;;;;;;;;;;1023531;29;1005;-15
2021/12/13 03:02:11;;;;;;;;;;;;;;;;;;1022372;29;1002;-15
2021/12/13 03:02:42;;;;;;;;;;;;;;;;;;1022519;29;1070;-15
2021/12/13 03:03:16;;;;;;;;;;;;;;;;;;1022441;28;896;-15
2021/12/13 03:03:49;;;;;;;;;;;;;;;;;;1022974;29;852;-15
2021/12/13 03:04:21;;;;;;;;;;;;;;;;;;1023539;28;908;-15
2021/12/13 03:04:51;;;;;;;;;;;;;;;;;;1018927;29;923;-15
2021/12/13 03:05:24;;;;;;;;;;;;;;;;;;1019256;29;997;-15
2021/12/13 03:05:57;;;;;;;;;;;;;;;;;;1018874;29;804;-15
2021/12/13 03:06:31;;;;;;;;;;;;;;;;;;1019843;29;994;-15
2021/12/13 03:07:07;;;;;;;;;;;;;;;;;;1014460;29;961;-15
2021/12/13 03:07:39;;;;;;;;;;;;;;;;;;1014718;29;1492;-15
2021/12/13 03:08:19;;;;;;;;;;;;;;;;;;1014673;29;1006;-15
2021/12/13 03:08:51;;;;;;;;;;;;;;;;;;1018846;29;1381;-15
2021/12/13 03:09:23;;;;;;;;;;;;;;;;;;1023560;29;934;-15
2021/12/13 03:09:54;;;;;;;;;;;;;;;;;;1023028;29;1076;-15
2021/12/13 03:10:29;;;;;;;;;;;;;;;;;;1023319;29;1984;-15
2021/12/13 03:11:03;;;;;;;;;;;;;;;;;;1023316;29;951;-15
2021/12/13 03:11:34;;;;;;;;;;;;;;;;;;1023202;29;968;-15
2021/12/13 03:12:07;;;;;;;;;;;;;;;;;;1023411;29;978;-15
2021/12/13 03:12:38;;;;;;;;;;;;;;;;;;1023253;29;1080;-15
2021/12/13 03:13:08;;;;;;;;;;;;;;;;;;1023210;29;919;-15
2021/12/13 03:13:38;;;;;;;;;;;;;;;;;;1023261;29;1011;-15
2021/12/13 03:14:11;;;;;;;;;;;;;;;;;;1023282;29;760;-15
2021/12/13 03:14:44;;;;;;;;;;;;;;;;;;1023358;29;924;-15
2021/12/13 03:15:16;;;;;;;;;;;;;;;;;;1018506;29;956;-15
2021/12/13 03:15:49;;;;;;;;;;;;;;;;;;1018453;29;1536;-15
2021/12/13 03:16:22;;;;;;;;;;;;;;;;;;1018599;29;1171;-15
2021/12/13 03:16:57;;;;;;;;;;;;;;;;;;1019607;29;1329;-15
2021/12/13 03:17:30;;;;;;;;;;;;;;;;;;1014441;29;1094;-15
2021/12/13 03:18:21;;;;;;;;;;;;;;;;;;1014499;29;1018;-15
2021/12/13 03:18:54;;;;;;;;;;;;;;;;;;1014888;29;914;-15
2021/12/13 03:19:31;;;;;;;;;;;;;;;;;;1022048;28;936;-15
2021/12/13 03:20:09;;;;;;;;;;;;;;;;;;1023029;29;945;-15
2021/12/13 03:20:43;;;;;;;;;;;;;;;;;;1023675;29;836;-15
2021/12/13 03:21:25;;;;;;;;;;;;;;;;;;1023174;29;986;-15
2021/12/13 03:22:01;;;;;;;;;;;;;;;;;;1023163;29;921;-15
2021/12/13 03:22:50;;;;;;;;;;;;;;;;;;1023651;29;941;-15
2021/12/13 03:23:23;;;;;;;;;;;;;;;;;;1023103;29;1542;-15
2021/12/13 03:23:56;;;;;;;;;;;;;;;;;;1023003;29;994;-15
2021/12/13 03:24:36;;;;;;;;;;;;;;;;;;1018777;29;1054;-15
2021/12/13 03:25:21;;;;;;;;;;;;;;;;;;1018606;29;1168;-15
2021/12/13 03:26:03;;;;;;;;;;;;;;;;;;1018593;29;1111;-15
2021/12/13 03:26:46;;;;;;;;;;;;;;;;;;1023237;29;878;-15
2021/12/13 03:27:22;;;;;;;;;;;;;;;;;;1023379;29;989;-15
2021/12/13 03:27:55;;;;;;;;;;;;;;;;;;1023347;28;817;-15
2021/12/13 03:28:44;;;;;;;;;;;;;;;;;;1022911;29;1165;-15
2021/12/13 03:29:35;;;;;;;;;;;;;;;;;;1016589;29;1197;-15
2021/12/13 03:30:11;;;;;;;;;;;;;;;;;;1004880;29;1570;-15
2021/12/13 03:30:50;;;;;;;;;;;;;;;;;;1015006;29;1903;-15
2021/12/13 03:31:27;;;;;;;;;;;;;;;;;;1015214;29;868;-15
2021/12/13 03:31:58;;;;;;;;;;;;;;;;;;1015590;29;1083;-15
2021/12/13 03:32:32;;;;;;;;;;;;;;;;;;1015246;29;1088;-15
2021/12/13 03:33:05;;;;;;;;;;;;;;;;;;1015288;29;966;-15
2021/12/13 03:33:43;;;;;;;;;;;;;;;;;;1007049;29;1072;-15
2021/12/13 03:34:31;;;;;;;;;;;;;;;;;;1007258;29;1121;-15
2021/12/13 03:35:06;;;;;;;;;;;;;;;;;;1010744;29;986;-15
2021/12/13 03:35:45;;;;;;;;;;;;;;;;;;1019392;29;990;-15
2021/12/13 03:36:19;;;;;;;;;;;;;;;;;;1010625;29;1023;-15
2021/12/13 03:36:52;;;;;;;;;;;;;;;;;;1010812;29;1076;-15
2021/12/13 03:37:23;;;;;;;;;;;;;;;;;;1010541;29;1407;-15
2021/12/13 03:37:55;;;;;;;;;;;;;;;;;;1012366;29;1016;-15
2021/12/13 03:38:31;;;;;;;;;;;;;;;;;;1019082;29;1043;-15
2021/12/13 03:39:03;;;;;;;;;;;;;;;;;;1018959;29;1023;-15
2021/12/13 03:39:41;;;;;;;;;;;;;;;;;;1019459;29;915;-15
2021/12/13 03:40:15;;;;;;;;;;;;;;;;;;1019172;29;1384;-15
2021/12/13 03:40:46;;;;;;;;;;;;;;;;;;1018988;29;990;-16
2021/12/13 03:41:19;;;;;;;;;;;;;;;;;;1019510;29;885;-15
2021/12/13 03:41:51;;;;;;;;;;;;;;;;;;1018230;29;1416;-15
2021/12/13 03:42:27;;;;;;;;;;;;;;;;;;1019151;29;1141;-15
2021/12/13 03:42:59;;;;;;;;;;;;;;;;;;1019415;29;1053;-15
2021/12/13 03:43:53;;;;;;;;;;;;;;;;;;1014260;29;986;-15
2021/12/13 03:44:28;;;;;;;;;;;;;;;;;;1002852;29;1317;-15
2021/12/13 03:45:02;;;;;;;;;;;;;;;;;;1011102;29;1182;-15
2021/12/13 03:45:47;;;;;;;;;;;;;;;;;;1010445;29;1049;-15
2021/12/13 03:46:20;;;;;;;;;;;;;;;;;;1010411;29;966;-15
2021/12/13 03:46:52;;;;;;;;;;;;;;;;;;1010847;29;1062;-15
2021/12/13 03:47:33;;;;;;;;;;;;;;;;;;1014553;29;1656;-15
2021/12/13 03:48:05;;;;;;;;;;;;;;;;;;1019286;29;934;-15
2021/12/13 03:48:36;;;;;;;;;;;;;;;;;;1019185;29;1003;-15
2021/12/13 03:49:08;;;;;;;;;;;;;;;;;;1019196;29;989;-15
2021/12/13 03:49:41;;;;;;;;;;;;;;;;;;1010803;29;1068;-15
2021/12/13 03:50:14;;;;;;;;;;;;;;;;;;1010692;29;951;-15
2021/12/13 03:50:47;;;;;;;;;;;;;;;;;;1010673;29;1919;-15
2021/12/13 03:51:20;;;;;;;;;;;;;;;;;;1004606;29;979;-15
2021/12/13 03:51:53;;;;;;;;;;;;;;;;;;1010789;29;791;-15
2021/12/13 03:52:25;;;;;;;;;;;;;;;;;;1010724;29;1000;-15
2021/12/13 03:52:57;;;;;;;;;;;;;;;;;;1012585;29;1576;-15
2021/12/13 03:53:29;;;;;;;;;;;;;;;;;;1010719;29;1007;-15
2021/12/13 03:54:00;;;;;;;;;;;;;;;;;;1010667;29;913;-15
2021/12/13 03:54:31;;;;;;;;;;;;;;;;;;1006725;29;1082;-15
2021/12/13 03:55:03;;;;;;;;;;;;;;;;;;1007148;29;1058;-15
2021/12/13 03:55:33;;;;;;;;;;;;;;;;;;1014467;29;1960;-15
2021/12/13 03:56:26;;;;;;;;;;;;;;;;;;1006648;29;876;-15
2021/12/13 03:56:57;;;;;;;;;;;;;;;;;;1003561;29;1063;-15
2021/12/13 03:57:28;;;;;;;;;;;;;;;;;;1003063;29;960;-15
2021/12/13 03:58:00;;;;;;;;;;;;;;;;;;1005955;29;942;-15
2021/12/13 03:58:35;;;;;;;;;;;;;;;;;;1007679;29;891;-15
2021/12/13 03:59:08;;;;;;;;;;;;;;;;;;1019264;29;900;-15
2021/12/13 03:59:41;;;;;;;;;;;;;;;;;;1018686;29;1215;-15
2021/12/13 04:00:13;;;;;;;;;;;;;;;;;;1018619;29;1018;-15
2021/12/13 04:00:48;;;;;;;;;;;;;;;;;;1018271;29;1264;-15
2021/12/13 04:01:24;;;;;;;;;;;;;;;;;;1018255;29;1066;-15
2021/12/13 04:01:59;;;;;;;;;;;;;;;;;;1018859;29;931;-15
2021/12/13 04:02:32;;;;;;;;;;;;;;;;;;1018888;29;1130;-15
2021/12/13 04:03:06;;;;;;;;;;;;;;;;;;1019359;29;947;-15
2021/12/13 04:03:37;;;;;;;;;;;;;;;;;;1019010;29;889;-15
2021/12/13 04:04:13;;;;;;;;;;;;;;;;;;1018464;29;952;-15
2021/12/13 04:04:48;;;;;;;;;;;;;;;;;;1018590;29;966;-15
2021/12/13 04:05:21;;;;;;;;;;;;;;;;;;1014247;29;993;-15
2021/12/13 04:05:52;;;;;;;;;;;;;;;;;;1014664;29;997;-15
2021/12/13 04:06:23;;;;;;;;;;;;;;;;;;1014276;29;891;-15
2021/12/13 04:06:58;;;;;;;;;;;;;;;;;;1015195;29;1223;-15
2021/12/13 04:07:34;;;;;;;;;;;;;;;;;;1019119;29;905;-15
2021/12/13 04:08:06;;;;;;;;;;;;;;;;;;1018890;29;954;-15
2021/12/13 04:08:38;;;;;;;;;;;;;;;;;;1019416;29;875;-15
2021/12/13 04:09:09;;;;;;;;;;;;;;;;;;1018968;29;889;-15
2021/12/13 04:09:41;;;;;;;;;;;;;;;;;;1010778;29;1024;-15
2021/12/13 04:10:22;;;;;;;;;;;;;;;;;;1010690;29;1052;-15
2021/12/13 04:11:06;;;;;;;;;;;;;;;;;;1010598;29;1907;-15
2021/12/13 04:11:39;;;;;;;;;;;;;;;;;;1017785;29;772;-15
2021/12/13 04:12:12;;;;;;;;;;;;;;;;;;1014936;29;988;-15
2021/12/13 04:12:48;;;;;;;;;;;;;;;;;;1014814;29;777;-15
2021/12/13 04:13:20;;;;;;;;;;;;;;;;;;1014584;29;1362;-15
2021/12/13 04:14:04;;;;;;;;;;;;;;;;;;1016032;29;1038;-15
2021/12/13 04:14:40;;;;;;;;;;;;;;;;;;1019120;29;1178;-15
2021/12/13 04:15:16;;;;;;;;;;;;;;;;;;1019107;29;1062;-15
2021/12/13 04:16:06;;;;;;;;;;;;;;;;;;1018912;29;1018;-15